Time;durP1;ratioP1;P1;durP2;ratioP2;P2;SDS_P1;SDS_P2;PMS_P1;PMS_P2;Temp;Humidity;BMP_temperature;BMP_pressure;BME280_temperature;BME280_humidity;BME280_pressure;Samples;Min_cycle;Max_cycle;Signal;HPM_P1;HPM_P2
2021/04/30 00:00:38;;;;;;;8.30;7.50;;;;;;;;;;5028759;28;20473;-53
2021/04/30 00:03:03;;;;;;;8.45;6.72;;;;;;;;;;5041500;28;20025;-55
2021/04/30 00:05:29;;;;;;;10.07;8.32;;;;;;;;;;5048502;28;20515;-56
2021/04/30 00:07:55;;;;;;;7.80;7.00;;;;;;;;;;5030419;28;20108;-52
2021/04/30 00:10:20;;;;;;;6.72;6.03;;;;;;;;;;5028342;28;20171;-56
2021/04/30 00:12:45;;;;;;;9.20;7.90;;;;;;;;;;5040179;28;20416;-54
2021/04/30 00:15:11;;;;;;;8.98;7.93;;;;;;;;;;5043552;28;20017;-53
2021/04/30 00:17:36;;;;;;;8.18;7.38;;;;;;;;;;5030854;28;20021;-53
2021/04/30 00:20:02;;;;;;;8.30;7.50;;;;;;;;;;5027589;28;20025;-55
2021/04/30 00:22:27;;;;;;;8.80;7.93;;;;;;;;;;5031102;28;20068;-54
2021/04/30 00:24:52;;;;;;;9.40;8.50;;;;;;;;;;5030271;28;20063;-55
2021/04/30 00:27:17;;;;;;;8.60;7.60;;;;;;;;;;5034756;28;20025;-54
2021/04/30 00:29:43;;;;;;;8.63;7.82;;;;;;;;;;5032735;28;20112;-53
2021/04/30 00:32:08;;;;;;;8.10;7.28;;;;;;;;;;5046295;28;20021;-54
2021/04/30 00:34:33;;;;;;;7.95;7.25;;;;;;;;;;5032700;28;20027;-54
2021/04/30 00:36:59;;;;;;;8.20;7.40;;;;;;;;;;5034321;28;20022;-55
2021/04/30 00:39:24;;;;;;;8.70;7.80;;;;;;;;;;5034595;28;20064;-53
2021/04/30 00:41:49;;;;;;;8.15;7.35;;;;;;;;;;5052988;28;20094;-53
2021/04/30 00:44:15;;;;;;;8.48;7.57;;;;;;;;;;5038137;28;20437;-54
2021/04/30 00:46:40;;;;;;;8.52;7.50;;;;;;;;;;5050212;28;20116;-52
2021/04/30 00:49:05;;;;;;;8.30;7.50;;;;;;;;;;5050469;28;20428;-54
2021/04/30 00:51:31;;;;;;;8.40;7.60;;;;;;;;;;5039743;28;20063;-55
2021/04/30 00:53:56;;;;;;;12.23;7.93;;;;;;;;;;5047196;28;20026;-54
2021/04/30 00:56:21;;;;;;;8.55;7.63;;;;;;;;;;5052649;28;20384;-55
2021/04/30 00:58:47;;;;;;;8.05;7.25;;;;;;;;;;5051847;28;20032;-55
2021/04/30 01:01:13;;;;;;;8.55;7.75;;;;;;;;;;5048274;28;20059;-54
2021/04/30 01:03:38;;;;;;;8.43;7.53;;;;;;;;;;5037714;28;20463;-53
2021/04/30 01:06:04;;;;;;;10.80;7.80;;;;;;;;;;5045766;28;20060;-53
2021/04/30 01:08:29;;;;;;;9.23;8.32;;;;;;;;;;5038328;28;20074;-55
2021/04/30 01:10:54;;;;;;;9.07;7.90;;;;;;;;;;5035283;28;20059;-54
2021/04/30 01:13:20;;;;;;;8.32;7.63;;;;;;;;;;5033518;28;20024;-51
2021/04/30 01:15:45;;;;;;;10.35;9.35;;;;;;;;;;5043484;28;20039;-55
2021/04/30 01:18:10;;;;;;;11.05;8.07;;;;;;;;;;5027345;28;20026;-53
2021/04/30 01:20:35;;;;;;;9.77;8.77;;;;;;;;;;5012708;28;20052;-51
2021/04/30 01:23:00;;;;;;;9.40;8.35;;;;;;;;;;5033473;28;20362;-50
2021/04/30 01:25:27;;;;;;;8.20;7.43;;;;;;;;;;5033759;28;20123;-54
2021/04/30 01:27:53;;;;;;;10.25;9.10;;;;;;;;;;5032484;28;20119;-55
2021/04/30 01:30:20;;;;;;;10.10;9.10;;;;;;;;;;5032793;28;20108;-53
2021/04/30 01:32:46;;;;;;;12.63;10.13;;;;;;;;;;5033372;28;20018;-55
2021/04/30 01:35:16;;;;;;;13.25;10.43;;;;;;;;;;5033331;28;20033;-54
2021/04/30 01:37:41;;;;;;;11.53;10.27;;;;;;;;;;5032698;28;20562;-52
2021/04/30 01:40:13;;;;;;;13.53;11.10;;;;;;;;;;5035236;28;20025;-51
2021/04/30 01:42:51;;;;;;;11.37;10.17;;;;;;;;;;5032734;28;20111;-53
2021/04/30 01:45:16;;;;;;;10.10;9.10;;;;;;;;;;5044844;28;20051;-51
2021/04/30 01:47:42;;;;;;;12.23;8.90;;;;;;;;;;5041542;28;20033;-51
2021/04/30 01:50:07;;;;;;;11.50;10.00;;;;;;;;;;5031117;28;20025;-53
2021/04/30 01:52:32;;;;;;;13.37;9.30;;;;;;;;;;5032516;28;20033;-52
2021/04/30 01:54:57;;;;;;;10.63;9.53;;;;;;;;;;5033743;28;20018;-53
2021/04/30 01:57:23;;;;;;;11.37;9.50;;;;;;;;;;5033681;28;20048;-51
2021/04/30 01:59:48;;;;;;;10.70;9.07;;;;;;;;;;5029416;28;20465;-54
2021/04/30 02:02:13;;;;;;;11.03;9.83;;;;;;;;;;5045848;28;20029;-50
2021/04/30 02:04:38;;;;;;;10.93;8.87;;;;;;;;;;5052489;28;20016;-54
2021/04/30 02:07:03;;;;;;;10.20;9.17;;;;;;;;;;5036404;28;20049;-54
2021/04/30 02:09:29;;;;;;;11.53;10.37;;;;;;;;;;5029545;28;20392;-55
2021/04/30 02:11:54;;;;;;;10.40;9.20;;;;;;;;;;5042006;28;20541;-53
2021/04/30 02:14:19;;;;;;;9.80;8.80;;;;;;;;;;5034331;28;20018;-53
2021/04/30 02:16:44;;;;;;;11.43;9.77;;;;;;;;;;5032677;28;20022;-50
2021/04/30 02:19:09;;;;;;;10.90;9.47;;;;;;;;;;5035797;28;20091;-54
2021/04/30 02:21:35;;;;;;;12.07;9.47;;;;;;;;;;5032030;28;20104;-54
2021/04/30 02:24:00;;;;;;;11.60;10.07;;;;;;;;;;5032110;28;20020;-51
2021/04/30 02:26:27;;;;;;;11.90;10.00;;;;;;;;;;5031997;28;20022;-55
2021/04/30 02:28:53;;;;;;;11.50;9.43;;;;;;;;;;5015299;28;20021;-52
2021/04/30 02:31:18;;;;;;;10.57;9.17;;;;;;;;;;5026306;28;20025;-54
2021/04/30 02:33:43;;;;;;;11.60;10.17;;;;;;;;;;5040147;28;20013;-56
2021/04/30 02:36:09;;;;;;;10.33;8.77;;;;;;;;;;5035411;28;20023;-51
2021/04/30 02:38:34;;;;;;;11.80;10.37;;;;;;;;;;5029987;28;20112;-53
2021/04/30 02:41:00;;;;;;;11.03;9.90;;;;;;;;;;5029346;28;20018;-55
2021/04/30 02:43:25;;;;;;;12.63;10.67;;;;;;;;;;5031501;28;20048;-55
2021/04/30 02:45:51;;;;;;;13.10;9.40;;;;;;;;;;5031801;28;20022;-55
2021/04/30 02:48:24;;;;;;;11.53;9.47;;;;;;;;;;5032006;28;20053;-55
2021/04/30 02:50:49;;;;;;;13.87;10.33;;;;;;;;;;5043556;28;20025;-54
2021/04/30 02:53:15;;;;;;;12.03;10.13;;;;;;;;;;5030544;28;20033;-55
2021/04/30 02:55:40;;;;;;;13.57;10.67;;;;;;;;;;5031347;28;20021;-53
2021/04/30 02:58:05;;;;;;;11.87;9.90;;;;;;;;;;5031147;28;20030;-54
2021/04/30 03:00:30;;;;;;;13.07;10.70;;;;;;;;;;5026133;28;20059;-53
2021/04/30 03:02:56;;;;;;;12.47;10.90;;;;;;;;;;5020603;28;20049;-54
2021/04/30 03:05:21;;;;;;;14.20;10.57;;;;;;;;;;5025503;28;20022;-53
2021/04/30 03:07:47;;;;;;;12.10;10.20;;;;;;;;;;5031497;28;20468;-52
2021/04/30 03:10:13;;;;;;;12.20;10.50;;;;;;;;;;5034487;28;20033;-55
2021/04/30 03:12:38;;;;;;;13.27;10.90;;;;;;;;;;5030927;28;20044;-56
2021/04/30 03:15:04;;;;;;;13.00;11.23;;;;;;;;;;5031165;28;20017;-53
2021/04/30 03:17:30;;;;;;;13.10;10.87;;;;;;;;;;5036103;28;20083;-55
2021/04/30 03:19:56;;;;;;;13.33;11.80;;;;;;;;;;5033932;28;20025;-52
2021/04/30 03:22:21;;;;;;;13.77;10.93;;;;;;;;;;5050376;28;20024;-53
2021/04/30 03:24:46;;;;;;;12.00;10.70;;;;;;;;;;5031137;28;20484;-54
2021/04/30 03:27:11;;;;;;;14.40;10.37;;;;;;;;;;5027896;28;20377;-55
2021/04/30 03:29:37;;;;;;;12.87;10.53;;;;;;;;;;5026753;28;20025;-52
2021/04/30 03:32:02;;;;;;;11.07;9.87;;;;;;;;;;5031794;28;20064;-54
2021/04/30 03:34:27;;;;;;;12.67;9.90;;;;;;;;;;5030993;28;20059;-52
2021/04/30 03:36:52;;;;;;;12.67;10.73;;;;;;;;;;5029846;28;20013;-53
2021/04/30 03:39:18;;;;;;;12.07;10.77;;;;;;;;;;5027981;28;20036;-52
2021/04/30 03:41:43;;;;;;;11.97;10.67;;;;;;;;;;5030520;28;20053;-56
2021/04/30 03:44:08;;;;;;;13.03;10.97;;;;;;;;;;5046093;28;20025;-52
2021/04/30 03:46:33;;;;;;;13.23;11.03;;;;;;;;;;5031160;28;20018;-54
2021/04/30 03:48:59;;;;;;;12.57;10.70;;;;;;;;;;5028406;28;20503;-55
2021/04/30 03:51:24;;;;;;;11.57;10.20;;;;;;;;;;5033013;28;20024;-54
2021/04/30 03:53:49;;;;;;;12.27;11.03;;;;;;;;;;5036853;28;20095;-52
2021/04/30 03:56:14;;;;;;;13.80;12.30;;;;;;;;;;5031025;28;20385;-55
2021/04/30 03:58:40;;;;;;;13.30;11.70;;;;;;;;;;5029786;28;20380;-54
2021/04/30 04:01:06;;;;;;;12.83;11.47;;;;;;;;;;5029038;28;20017;-53
2021/04/30 04:03:32;;;;;;;13.77;11.67;;;;;;;;;;5031989;28;20079;-52
2021/04/30 04:05:57;;;;;;;12.33;11.03;;;;;;;;;;5034890;28;20041;-54
2021/04/30 04:08:22;;;;;;;13.10;11.43;;;;;;;;;;5052727;28;20559;-53
2021/04/30 04:10:47;;;;;;;11.63;10.43;;;;;;;;;;5038398;28;20025;-52
2021/04/30 04:13:19;;;;;;;14.07;12.20;;;;;;;;;;5033929;28;20028;-55
2021/04/30 04:15:45;;;;;;;14.30;11.30;;;;;;;;;;5034790;28;20119;-56
2021/04/30 04:18:10;;;;;;;13.40;11.40;;;;;;;;;;5047426;28;20045;-52
2021/04/30 04:20:36;;;;;;;12.00;8.60;;;;;;;;;;5032507;28;20017;-56
2021/04/30 04:23:01;;;;;;;13.47;11.30;;;;;;;;;;5036796;28;20424;-52
2021/04/30 04:25:27;;;;;;;15.87;12.33;;;;;;;;;;5034360;28;20021;-53
2021/04/30 04:27:52;;;;;;;12.63;11.23;;;;;;;;;;5044206;28;20304;-55
2021/04/30 04:30:17;;;;;;;14.70;13.10;;;;;;;;;;5036501;28;20064;-55
2021/04/30 04:32:42;;;;;;;14.60;12.30;;;;;;;;;;5041438;28;20057;-56
2021/04/30 04:35:08;;;;;;;13.07;11.70;;;;;;;;;;5046826;28;20522;-55
2021/04/30 04:37:33;;;;;;;15.07;11.77;;;;;;;;;;5036445;28;20476;-56
2021/04/30 04:39:58;;;;;;;14.93;11.23;;;;;;;;;;5031327;28;20053;-54
2021/04/30 04:42:23;;;;;;;15.37;10.77;;;;;;;;;;5033008;28;20340;-55
2021/04/30 04:44:49;;;;;;;16.37;11.03;;;;;;;;;;5033284;28;20048;-55
2021/04/30 04:47:14;;;;;;;15.20;11.10;;;;;;;;;;5041243;28;20021;-53
2021/04/30 04:49:39;;;;;;;15.97;11.20;;;;;;;;;;5031126;28;20024;-55
2021/04/30 04:52:04;;;;;;;15.13;9.00;;;;;;;;;;5034811;28;20025;-55
2021/04/30 04:54:31;;;;;;;19.53;11.47;;;;;;;;;;5033496;28;20025;-51
2021/04/30 04:56:56;;;;;;;17.50;12.87;;;;;;;;;;5044168;28;20029;-53
2021/04/30 04:59:22;;;;;;;15.57;11.73;;;;;;;;;;5030744;28;20027;-55
2021/04/30 05:01:47;;;;;;;15.87;11.47;;;;;;;;;;5050311;28;20025;-54
2021/04/30 05:04:12;;;;;;;16.37;10.83;;;;;;;;;;5035906;28;20026;-54
2021/04/30 05:06:37;;;;;;;21.03;12.63;;;;;;;;;;5033036;28;20063;-55
2021/04/30 05:09:03;;;;;;;20.47;13.27;;;;;;;;;;5030524;28;20236;-53
2021/04/30 05:11:28;;;;;;;18.03;12.70;;;;;;;;;;5033658;28;20419;-56
2021/04/30 05:13:53;;;;;;;18.63;12.10;;;;;;;;;;5033779;28;20022;-52
2021/04/30 05:16:18;;;;;;;22.17;13.50;;;;;;;;;;5031903;28;20082;-55
2021/04/30 05:18:44;;;;;;;18.57;12.03;;;;;;;;;;5031166;28;20109;-52
2021/04/30 05:21:11;;;;;;;18.13;13.33;;;;;;;;;;5050803;28;20021;-55
2021/04/30 05:23:37;;;;;;;19.77;12.43;;;;;;;;;;5041855;28;20481;-53
2021/04/30 05:26:03;;;;;;;20.13;12.33;;;;;;;;;;5032815;28;20028;-54
2021/04/30 05:28:29;;;;;;;13.77;7.70;;;;;;;;;;5034780;28;20013;-54
2021/04/30 05:30:54;;;;;;;16.70;11.60;;;;;;;;;;5021755;28;20026;-54
2021/04/30 05:33:20;;;;;;;20.57;15.00;;;;;;;;;;5036536;28;20021;-56
2021/04/30 05:35:45;;;;;;;14.23;10.30;;;;;;;;;;5033065;28;20087;-50
2021/04/30 05:38:10;;;;;;;15.77;11.23;;;;;;;;;;5032932;28;20047;-52
2021/04/30 05:40:35;;;;;;;15.33;10.83;;;;;;;;;;5029419;28;20075;-55
2021/04/30 05:43:01;;;;;;;19.10;12.83;;;;;;;;;;5042539;28;20075;-56
2021/04/30 05:45:26;;;;;;;9.87;4.97;;;;;;;;;;5032617;28;20049;-56
2021/04/30 05:47:51;;;;;;;17.73;12.33;;;;;;;;;;5033096;28;20029;-54
2021/04/30 05:50:17;;;;;;;18.83;11.87;;;;;;;;;;5029681;28;20025;-53
2021/04/30 05:52:42;;;;;;;13.30;8.67;;;;;;;;;;5045471;28;20252;-52
2021/04/30 05:55:08;;;;;;;16.27;11.37;;;;;;;;;;5032423;28;20033;-54
2021/04/30 05:57:33;;;;;;;18.87;13.73;;;;;;;;;;5032322;28;20036;-55
2021/04/30 05:59:58;;;;;;;17.83;12.43;;;;;;;;;;5029759;28;20026;-56
2021/04/30 06:02:23;;;;;;;15.50;12.47;;;;;;;;;;5041672;28;20021;-56
2021/04/30 06:04:49;;;;;;;10.80;6.53;;;;;;;;;;5032038;28;20350;-54
2021/04/30 06:07:14;;;;;;;16.40;12.70;;;;;;;;;;5031873;28;20068;-55
2021/04/30 06:09:39;;;;;;;15.40;11.10;;;;;;;;;;5029154;28;20017;-55
2021/04/30 06:12:05;;;;;;;10.50;7.67;;;;;;;;;;5038710;28;20502;-53
2021/04/30 06:14:30;;;;;;;15.87;11.83;;;;;;;;;;5037936;28;20021;-55
2021/04/30 06:16:56;;;;;;;14.33;11.30;;;;;;;;;;5030207;28;20039;-56
2021/04/30 06:19:21;;;;;;;13.23;11.43;;;;;;;;;;5028074;28;20025;-54
2021/04/30 06:21:46;;;;;;;15.55;11.23;;;;;;;;;;5033395;28;20098;-54
2021/04/30 06:24:12;;;;;;;14.27;10.82;;;;;;;;;;5038319;28;20507;-56
2021/04/30 06:26:37;;;;;;;13.32;9.63;;;;;;;;;;5030978;28;20013;-55
2021/04/30 06:29:02;;;;;;;13.70;10.57;;;;;;;;;;5029009;28;20029;-53
2021/04/30 06:31:27;;;;;;;15.10;10.45;;;;;;;;;;5031540;28;20025;-56
2021/04/30 06:33:53;;;;;;;14.27;11.40;;;;;;;;;;5030184;28;20020;-56
2021/04/30 06:36:18;;;;;;;15.52;11.38;;;;;;;;;;5031774;28;20018;-57
2021/04/30 06:38:43;;;;;;;14.10;10.38;;;;;;;;;;5030086;28;20029;-57
2021/04/30 06:41:08;;;;;;;11.65;9.75;;;;;;;;;;5029621;28;20017;-56
2021/04/30 06:43:34;;;;;;;15.73;9.57;;;;;;;;;;5030830;28;20384;-56
2021/04/30 06:45:59;;;;;;;14.10;10.73;;;;;;;;;;5031519;28;20404;-54
2021/04/30 06:48:24;;;;;;;14.25;10.52;;;;;;;;;;5031312;28;20476;-55
2021/04/30 06:50:49;;;;;;;12.38;10.20;;;;;;;;;;5027726;28;20550;-55
2021/04/30 06:53:14;;;;;;;13.65;11.45;;;;;;;;;;5029946;28;20488;-57
2021/04/30 06:55:40;;;;;;;12.40;11.10;;;;;;;;;;5030989;28;20024;-56
2021/04/30 06:58:05;;;;;;;13.00;10.68;;;;;;;;;;5016050;28;20021;-55
2021/04/30 07:00:30;;;;;;;13.30;10.40;;;;;;;;;;5022713;28;20066;-55
2021/04/30 07:02:55;;;;;;;8.77;7.88;;;;;;;;;;5027444;28;20017;-56
2021/04/30 07:05:21;;;;;;;14.18;11.18;;;;;;;;;;5034134;28;20021;-55
2021/04/30 07:07:46;;;;;;;9.63;7.15;;;;;;;;;;5028253;28;20527;-53
2021/04/30 07:10:11;;;;;;;9.90;7.93;;;;;;;;;;5031362;28;20387;-55
2021/04/30 07:12:37;;;;;;;13.55;7.57;;;;;;;;;;5029934;28;20033;-55
2021/04/30 07:15:04;;;;;;;11.98;9.77;;;;;;;;;;5029145;28;20029;-53
2021/04/30 07:17:30;;;;;;;13.18;11.77;;;;;;;;;;5026649;28;20026;-51
2021/04/30 07:19:56;;;;;;;15.98;12.07;;;;;;;;;;5029902;28;20025;-51
2021/04/30 07:22:21;;;;;;;10.88;8.68;;;;;;;;;;5027238;28;20021;-53
2021/04/30 07:24:46;;;;;;;12.70;11.35;;;;;;;;;;5030309;28;21075;-54
2021/04/30 07:27:12;;;;;;;12.70;10.13;;;;;;;;;;5028168;28;20075;-53
2021/04/30 07:29:37;;;;;;;11.13;9.93;;;;;;;;;;5029904;28;20088;-55
2021/04/30 07:32:03;;;;;;;12.40;10.07;;;;;;;;;;5030094;28;20396;-51
2021/04/30 07:34:28;;;;;;;12.82;10.48;;;;;;;;;;5035065;28;20029;-52
2021/04/30 07:36:53;;;;;;;11.55;10.38;;;;;;;;;;5027873;28;20053;-54
2021/04/30 07:39:19;;;;;;;10.90;9.25;;;;;;;;;;5031910;28;20030;-56
2021/04/30 07:41:44;;;;;;;11.13;8.98;;;;;;;;;;5035386;28;20029;-54
2021/04/30 07:44:09;;;;;;;10.63;8.07;;;;;;;;;;5032135;28;20061;-54
2021/04/30 07:46:35;;;;;;;12.07;10.88;;;;;;;;;;5034603;28;20065;-55
2021/04/30 07:49:00;;;;;;;12.27;9.48;;;;;;;;;;5031856;28;20021;-56
2021/04/30 07:51:25;;;;;;;9.48;6.85;;;;;;;;;;5033568;28;20057;-52
2021/04/30 07:53:50;;;;;;;7.60;5.43;;;;;;;;;;5035830;28;20045;-54
2021/04/30 07:56:15;;;;;;;7.53;5.95;;;;;;;;;;5035242;28;20087;-53
2021/04/30 07:58:41;;;;;;;11.45;10.25;;;;;;;;;;5031777;28;20167;-52
2021/04/30 08:01:06;;;;;;;12.00;10.52;;;;;;;;;;5034861;28;20412;-55
2021/04/30 08:03:31;;;;;;;12.55;11.18;;;;;;;;;;5036154;28;20025;-54
2021/04/30 08:05:57;;;;;;;12.35;11.05;;;;;;;;;;5032725;28;20120;-53
2021/04/30 08:08:22;;;;;;;11.48;7.82;;;;;;;;;;5036852;28;20021;-54
2021/04/30 08:10:47;;;;;;;13.10;11.70;;;;;;;;;;5051704;28;20017;-55
2021/04/30 08:13:12;;;;;;;10.95;9.40;;;;;;;;;;5034551;28;20472;-54
2021/04/30 08:15:38;;;;;;;11.23;9.70;;;;;;;;;;5026478;28;20515;-57
2021/04/30 08:18:04;;;;;;;10.60;9.50;;;;;;;;;;5028608;28;20823;-54
2021/04/30 08:20:29;;;;;;;13.75;9.90;;;;;;;;;;5034345;28;20034;-54
2021/04/30 08:22:54;;;;;;;10.25;7.90;;;;;;;;;;5034642;28;20457;-55
2021/04/30 08:25:21;;;;;;;10.63;9.45;;;;;;;;;;5034875;28;20057;-56
2021/04/30 08:27:46;;;;;;;10.18;9.18;;;;;;;;;;5030844;28;20104;-55
2021/04/30 08:30:12;;;;;;;10.57;9.57;;;;;;;;;;5034329;28;20120;-53
2021/04/30 08:32:38;;;;;;;11.93;9.95;;;;;;;;;;5034010;28;20030;-55
2021/04/30 08:35:03;;;;;;;11.40;10.30;;;;;;;;;;5034229;28;20427;-54
2021/04/30 08:37:28;;;;;;;12.82;11.63;;;;;;;;;;5030281;28;20481;-54
2021/04/30 08:39:54;;;;;;;12.43;11.13;;;;;;;;;;5033855;28;20435;-54
2021/04/30 08:42:19;;;;;;;11.65;10.52;;;;;;;;;;5034612;28;20541;-53
2021/04/30 08:44:45;;;;;;;10.45;9.00;;;;;;;;;;5031609;28;20419;-54
2021/04/30 08:47:15;;;;;;;10.95;9.70;;;;;;;;;;5026256;28;20120;-54
2021/04/30 08:49:40;;;;;;;11.32;10.13;;;;;;;;;;5033606;28;20024;-54
2021/04/30 08:52:05;;;;;;;12.23;11.13;;;;;;;;;;5033666;28;20025;-53
2021/04/30 08:54:31;;;;;;;11.45;10.27;;;;;;;;;;5034519;28;20030;-53
2021/04/30 08:57:00;;;;;;;10.85;9.63;;;;;;;;;;5032363;28;20040;-55
2021/04/30 08:59:26;;;;;;;11.45;9.80;;;;;;;;;;5034115;28;20116;-56
2021/04/30 09:01:52;;;;;;;13.10;11.73;;;;;;;;;;5034368;28;20021;-54
2021/04/30 09:04:17;;;;;;;10.32;9.32;;;;;;;;;;5034586;28;20484;-56
2021/04/30 09:06:44;;;;;;;9.73;8.65;;;;;;;;;;5033225;28;20042;-54
2021/04/30 09:09:11;;;;;;;10.90;9.80;;;;;;;;;;5032344;28;20021;-53
2021/04/30 09:11:58;;;;;;;10.52;9.40;;;;;;;;;;5034462;28;20021;-53
2021/04/30 09:14:23;;;;;;;9.95;8.95;;;;;;;;;;5034697;28;20033;-54
2021/04/30 09:16:59;;;;;;;10.45;9.07;;;;;;;;;;5033172;28;20024;-54
2021/04/30 09:19:34;;;;;;;9.85;8.85;;;;;;;;;;5033796;28;20071;-56
2021/04/30 09:22:00;;;;;;;7.10;6.43;;;;;;;;;;5033937;28;20393;-53
2021/04/30 09:24:26;;;;;;;9.43;8.52;;;;;;;;;;5038141;28;20024;-52
2021/04/30 09:26:51;;;;;;;9.82;8.77;;;;;;;;;;5034982;28;20014;-54
2021/04/30 09:29:19;;;;;;;11.20;10.13;;;;;;;;;;5032173;28;20028;-54
2021/04/30 09:31:45;;;;;;;8.88;7.93;;;;;;;;;;5033519;28;20030;-55
2021/04/30 09:34:16;;;;;;;9.45;7.82;;;;;;;;;;5034302;28;20017;-55
2021/04/30 09:36:53;;;;;;;9.82;8.93;;;;;;;;;;5033236;28;20511;-55
2021/04/30 09:39:18;;;;;;;8.88;7.97;;;;;;;;;;5028037;28;20540;-51
2021/04/30 09:41:43;;;;;;;8.27;7.47;;;;;;;;;;5033217;28;20148;-52
2021/04/30 09:44:09;;;;;;;9.70;8.65;;;;;;;;;;5032628;28;20079;-53
2021/04/30 09:46:35;;;;;;;9.90;8.52;;;;;;;;;;5033798;28;20018;-56
2021/04/30 09:49:15;;;;;;;8.65;7.70;;;;;;;;;;5029681;28;20493;-53
2021/04/30 09:51:44;;;;;;;8.60;7.80;;;;;;;;;;5032709;28;20052;-56
2021/04/30 09:54:15;;;;;;;10.35;9.15;;;;;;;;;;5030534;28;20030;-53
2021/04/30 09:56:41;;;;;;;9.10;8.25;;;;;;;;;;5031674;28;20022;-54
2021/04/30 09:59:07;;;;;;;10.40;9.40;;;;;;;;;;5029783;28;20033;-53
2021/04/30 10:01:32;;;;;;;8.70;7.80;;;;;;;;;;5026062;28;20043;-52
2021/04/30 10:03:57;;;;;;;7.60;6.88;;;;;;;;;;5039079;28;20024;-54
2021/04/30 10:06:23;;;;;;;5.72;5.13;;;;;;;;;;5039086;28;20032;-55
2021/04/30 10:09:02;;;;;;;7.60;6.63;;;;;;;;;;5031193;28;20033;-56
2021/04/30 10:11:28;;;;;;;8.35;7.55;;;;;;;;;;5035508;28;20021;-54
2021/04/30 10:13:54;;;;;;;10.05;9.05;;;;;;;;;;5039781;28;20051;-54
2021/04/30 10:16:19;;;;;;;8.43;7.60;;;;;;;;;;5053381;28;20465;-52
2021/04/30 10:18:44;;;;;;;9.57;8.68;;;;;;;;;;5037230;28;20120;-53
2021/04/30 10:21:10;;;;;;;8.13;7.32;;;;;;;;;;5030356;28;20043;-58
2021/04/30 10:23:36;;;;;;;9.35;7.50;;;;;;;;;;5017857;28;20029;-54
2021/04/30 10:26:02;;;;;;;8.75;7.95;;;;;;;;;;5033107;28;20020;-51
2021/04/30 10:28:30;;;;;;;8.48;7.68;;;;;;;;;;5039606;28;20019;-55
2021/04/30 10:30:59;;;;;;;8.00;7.20;;;;;;;;;;5036523;28;20534;-53
2021/04/30 10:33:37;;;;;;;9.98;8.55;;;;;;;;;;5052163;28;20104;-57
2021/04/30 10:36:08;;;;;;;7.72;7.03;;;;;;;;;;5033350;28;20026;-55
2021/04/30 10:38:41;;;;;;;10.15;7.80;;;;;;;;;;5039125;28;20037;-55
2021/04/30 10:41:09;;;;;;;7.82;7.05;;;;;;;;;;5033085;28;20020;-53
2021/04/30 10:43:35;;;;;;;7.88;7.18;;;;;;;;;;5036301;28;20356;-51
2021/04/30 10:46:00;;;;;;;8.55;7.35;;;;;;;;;;5043484;28;20428;-54
2021/04/30 10:48:26;;;;;;;7.57;6.80;;;;;;;;;;5028999;28;20017;-52
2021/04/30 10:50:51;;;;;;;7.95;7.15;;;;;;;;;;5037095;28;20022;-58
2021/04/30 10:53:23;;;;;;;7.55;6.85;;;;;;;;;;5039759;28;20387;-52
2021/04/30 10:55:48;;;;;;;8.02;7.32;;;;;;;;;;5019236;28;20025;-58
2021/04/30 10:58:29;;;;;;;8.13;7.32;;;;;;;;;;5030447;28;20439;-54
2021/04/30 11:00:54;;;;;;;7.93;7.22;;;;;;;;;;5035367;28;20040;-53
2021/04/30 11:03:20;;;;;;;7.70;7.00;;;;;;;;;;5032935;28;20021;-55
2021/04/30 11:05:51;;;;;;;7.03;6.43;;;;;;;;;;5032633;28;20100;-54
2021/04/30 11:08:16;;;;;;;8.38;7.65;;;;;;;;;;5029749;28;20096;-55
2021/04/30 11:10:42;;;;;;;8.88;8.07;;;;;;;;;;5050098;28;20475;-55
2021/04/30 11:13:07;;;;;;;6.63;6.13;;;;;;;;;;5050202;28;20020;-54
2021/04/30 11:15:48;;;;;;;6.53;5.93;;;;;;;;;;5051730;28;20017;-55
2021/04/30 11:18:18;;;;;;;6.80;6.18;;;;;;;;;;5028095;28;20030;-52
2021/04/30 11:20:43;;;;;;;8.95;6.15;;;;;;;;;;5047267;28;20469;-57
2021/04/30 11:23:11;;;;;;;6.35;5.60;;;;;;;;;;5045600;28;20032;-54
2021/04/30 11:26:09;;;;;;;7.45;6.75;;;;;;;;;;5049049;28;20097;-54
2021/04/30 11:28:34;;;;;;;6.80;6.18;;;;;;;;;;5028047;28;20041;-54
2021/04/30 11:31:06;;;;;;;6.20;5.57;;;;;;;;;;5040813;28;20263;-56
2021/04/30 11:33:32;;;;;;;6.72;6.13;;;;;;;;;;5047550;28;20021;-51
2021/04/30 11:35:58;;;;;;;6.63;5.90;;;;;;;;;;5038383;28;20116;-48
2021/04/30 11:38:36;;;;;;;7.30;6.60;;;;;;;;;;5038482;28;20028;-55
2021/04/30 11:41:02;;;;;;;5.57;5.07;;;;;;;;;;5041594;28;20022;-54
2021/04/30 11:43:27;;;;;;;6.63;5.93;;;;;;;;;;5029415;28;20032;-51
2021/04/30 11:45:54;;;;;;;6.07;5.57;;;;;;;;;;5034963;28;20075;-54
2021/04/30 11:48:23;;;;;;;9.43;7.50;;;;;;;;;;5032513;28;20022;-54
2021/04/30 11:51:08;;;;;;;7.03;6.35;;;;;;;;;;5038425;28;20095;-54
2021/04/30 11:53:34;;;;;;;7.55;6.85;;;;;;;;;;5033937;28;20018;-52
2021/04/30 11:55:59;;;;;;;8.95;7.50;;;;;;;;;;5035276;28;20017;-55
2021/04/30 11:58:43;;;;;;;8.65;7.93;;;;;;;;;;5033394;28;20020;-56
2021/04/30 12:01:13;;;;;;;8.37;7.57;;;;;;;;;;5032587;28;20712;-53
2021/04/30 12:03:45;;;;;;;8.65;7.75;;;;;;;;;;5031715;28;20464;-56
2021/04/30 12:06:14;;;;;;;8.43;7.53;;;;;;;;;;5032999;28;20053;-54
2021/04/30 12:08:44;;;;;;;7.20;6.53;;;;;;;;;;5030566;28;20480;-54
2021/04/30 12:11:22;;;;;;;8.02;7.32;;;;;;;;;;5034126;28;20477;-54
2021/04/30 12:13:48;;;;;;;6.82;6.13;;;;;;;;;;5027063;28;20010;-54
2021/04/30 12:16:14;;;;;;;7.88;7.05;;;;;;;;;;5031025;28;20374;-54
2021/04/30 12:18:39;;;;;;;6.80;6.20;;;;;;;;;;5030179;28;20405;-53
2021/04/30 12:21:04;;;;;;;6.22;5.63;;;;;;;;;;5032632;28;20387;-51
2021/04/30 12:23:30;;;;;;;7.20;6.57;;;;;;;;;;5033426;28;20383;-52
2021/04/30 12:25:55;;;;;;;6.93;6.15;;;;;;;;;;5032865;28;20017;-54
2021/04/30 12:28:28;;;;;;;7.47;6.78;;;;;;;;;;5029241;28;20486;-54
2021/04/30 12:30:55;;;;;;;6.78;6.03;;;;;;;;;;5034809;28;20027;-55
2021/04/30 12:33:21;;;;;;;8.75;7.95;;;;;;;;;;5033688;28;20016;-55
2021/04/30 12:35:46;;;;;;;7.85;7.03;;;;;;;;;;5038048;28;20036;-56
2021/04/30 12:38:12;;;;;;;7.50;6.75;;;;;;;;;;5040423;28;20476;-54
2021/04/30 12:40:37;;;;;;;7.65;6.88;;;;;;;;;;5046035;28;20151;-53
2021/04/30 12:43:02;;;;;;;6.82;5.80;;;;;;;;;;5039646;28;20144;-56
2021/04/30 12:45:28;;;;;;;7.20;6.50;;;;;;;;;;5034591;28;20106;-53
2021/04/30 12:47:55;;;;;;;7.30;6.70;;;;;;;;;;5040734;28;20379;-54
2021/04/30 12:50:21;;;;;;;6.18;5.45;;;;;;;;;;5034931;28;20480;-55
2021/04/30 12:52:47;;;;;;;8.35;7.38;;;;;;;;;;5034957;28;20057;-54
2021/04/30 12:55:51;;;;;;;7.95;7.15;;;;;;;;;;5034240;28;20040;-54
2021/04/30 12:58:17;;;;;;;8.40;7.70;;;;;;;;;;5009373;28;20058;-56
2021/04/30 13:00:52;;;;;;;7.10;6.50;;;;;;;;;;5012093;28;20033;-54
2021/04/30 13:03:17;;;;;;;7.68;7.07;;;;;;;;;;5011527;28;20038;-56
2021/04/30 13:05:43;;;;;;;10.32;9.20;;;;;;;;;;5011369;28;20032;-55
2021/04/30 13:08:08;;;;;;;9.95;8.57;;;;;;;;;;5009146;28;20068;-56
2021/04/30 13:10:34;;;;;;;10.40;9.40;;;;;;;;;;5011380;28;20461;-54
2021/04/30 13:13:05;;;;;;;9.93;9.02;;;;;;;;;;5011821;28;20512;-55
2021/04/30 13:15:31;;;;;;;11.27;8.32;;;;;;;;;;5011866;28;20583;-54
2021/04/30 13:17:59;;;;;;;10.10;9.20;;;;;;;;;;5009374;28;20123;-55
2021/04/30 13:20:28;;;;;;;10.13;9.23;;;;;;;;;;4996980;28;20616;-55
2021/04/30 13:23:02;;;;;;;10.00;9.10;;;;;;;;;;4992826;28;20038;-53
2021/04/30 13:25:35;;;;;;;10.00;9.00;;;;;;;;;;5003982;28;20482;-55
2021/04/30 13:28:08;;;;;;;9.88;8.98;;;;;;;;;;4991297;28;20065;-54
2021/04/30 13:30:40;;;;;;;10.77;9.68;;;;;;;;;;5026217;28;20028;-52
2021/04/30 13:33:38;;;;;;;10.10;9.10;;;;;;;;;;5014267;28;20026;-53
2021/04/30 13:36:06;;;;;;;9.57;8.60;;;;;;;;;;5028797;28;20059;-58
2021/04/30 13:38:31;;;;;;;9.32;8.43;;;;;;;;;;5047897;28;20473;-54
2021/04/30 13:41:10;;;;;;;8.90;8.10;;;;;;;;;;5045026;28;20016;-52
2021/04/30 13:43:35;;;;;;;8.75;8.02;;;;;;;;;;5051929;28;20460;-53
2021/04/30 13:46:10;;;;;;;8.82;8.13;;;;;;;;;;5049044;28;20021;-56
2021/04/30 13:48:36;;;;;;;8.27;7.57;;;;;;;;;;5051363;28;20028;-51
2021/04/30 13:51:02;;;;;;;7.95;7.25;;;;;;;;;;5050182;28;20021;-55
2021/04/30 13:53:27;;;;;;;7.40;6.80;;;;;;;;;;5053446;28;20139;-53
2021/04/30 13:55:52;;;;;;;6.82;6.22;;;;;;;;;;5050089;28;20072;-56
2021/04/30 13:58:18;;;;;;;7.75;7.03;;;;;;;;;;5046808;28;20017;-54
2021/04/30 14:00:43;;;;;;;7.68;7.00;;;;;;;;;;5030540;28;20099;-54
2021/04/30 14:03:09;;;;;;;7.60;6.78;;;;;;;;;;5043297;28;20548;-52
2021/04/30 14:05:34;;;;;;;7.88;6.90;;;;;;;;;;5045429;28;20021;-52
2021/04/30 14:07:59;;;;;;;7.68;6.97;;;;;;;;;;5030297;28;20037;-54
2021/04/30 14:10:24;;;;;;;8.70;7.90;;;;;;;;;;5046411;28;20028;-52
2021/04/30 14:12:49;;;;;;;8.38;7.68;;;;;;;;;;5041153;28;20029;-50
2021/04/30 14:15:15;;;;;;;8.43;7.40;;;;;;;;;;5048532;28;20027;-55
2021/04/30 14:17:40;;;;;;;9.88;8.52;;;;;;;;;;5043983;28;20029;-53
2021/04/30 14:20:06;;;;;;;9.68;8.25;;;;;;;;;;5034218;28;20472;-53
2021/04/30 14:22:31;;;;;;;8.30;7.60;;;;;;;;;;5037404;28;20469;-52
2021/04/30 14:24:57;;;;;;;9.77;8.02;;;;;;;;;;5032510;28;20683;-54
2021/04/30 14:27:24;;;;;;;8.85;7.95;;;;;;;;;;5048798;28;20331;-54